createdAt,value
2019-05-12T00:01:44.418Z,12.65
2019-05-12T00:04:18.691Z,12.60
2019-05-12T00:06:50.229Z,12.51
2019-05-12T00:09:22.302Z,12.44
2019-05-12T00:11:59.108Z,12.33
2019-05-12T00:14:39.180Z,12.24
2019-05-12T00:17:30.549Z,12.27
2019-05-12T00:20:02.637Z,12.13
2019-05-12T00:22:43.063Z,12.01
2019-05-12T00:25:15.006Z,12.00
2019-05-12T00:28:07.844Z,11.99
2019-05-12T00:30:44.859Z,11.92
2019-05-12T00:33:18.000Z,11.86
2019-05-12T00:35:50.249Z,11.79
2019-05-12T00:38:38.200Z,11.65
2019-05-12T00:41:11.618Z,11.54
2019-05-12T00:43:52.793Z,11.49
2019-05-12T00:46:32.763Z,11.32
2019-05-12T00:49:04.883Z,11.24
2019-05-12T00:51:42.415Z,11.29
2019-05-12T00:54:14.484Z,11.32
2019-05-12T00:56:48.169Z,11.31
2019-05-12T00:59:23.025Z,11.34
2019-05-12T01:01:58.580Z,11.20
2019-05-12T01:04:32.553Z,11.24
2019-05-12T01:07:08.727Z,11.24
2019-05-12T01:09:43.875Z,11.18
2019-05-12T01:12:18.011Z,11.16
2019-05-12T01:14:49.911Z,11.01
2019-05-12T01:17:28.302Z,10.94
2019-05-12T01:20:01.551Z,10.89
2019-05-12T01:22:50.579Z,10.85
2019-05-12T01:25:25.050Z,10.81
2019-05-12T01:27:58.864Z,10.60
2019-05-12T01:30:32.191Z,10.47
2019-05-12T01:33:08.509Z,10.41
2019-05-12T01:35:40.918Z,10.33
2019-05-12T01:38:14.187Z,10.28
2019-05-12T01:40:48.831Z,10.29
2019-05-12T01:43:23.046Z,10.04
2019-05-12T01:45:58.663Z,9.92
2019-05-12T01:48:37.833Z,9.79
2019-05-12T01:51:11.448Z,9.64
2019-05-12T01:53:48.234Z,9.63
2019-05-12T01:56:22.923Z,9.48
2019-05-12T01:58:58.367Z,9.40
2019-05-12T02:01:30.907Z,9.33
2019-05-12T02:04:07.566Z,9.31
2019-05-12T02:06:38.953Z,9.26
2019-05-12T02:09:21.043Z,9.20
2019-05-12T02:11:54.425Z,9.20
2019-05-12T02:14:27.589Z,9.05
2019-05-12T02:17:10.127Z,9.03
2019-05-12T02:19:43.755Z,9.01
2019-05-12T02:22:19.028Z,8.95
2019-05-12T02:24:53.856Z,9.01
2019-05-12T02:27:28.560Z,8.97
2019-05-12T02:30:00.538Z,8.98
2019-05-12T02:32:40.835Z,8.86
2019-05-12T02:35:06.596Z,8.69
2019-05-12T02:37:39.986Z,8.66
2019-05-12T02:40:15.113Z,8.65
2019-05-12T02:42:46.644Z,8.67
2019-05-12T02:45:18.866Z,8.53
2019-05-12T02:47:50.838Z,8.60
2019-05-12T02:50:36.492Z,8.62
2019-05-12T02:53:09.321Z,8.48
2019-05-12T02:55:45.179Z,8.42
2019-05-12T02:58:21.039Z,8.42
2019-05-12T03:00:55.014Z,8.37
2019-05-12T03:06:21.257Z,8.36
2019-05-12T03:08:55.062Z,8.38
2019-05-12T03:11:27.565Z,8.42
2019-05-12T03:13:59.586Z,8.32
2019-05-12T03:16:40.606Z,8.32
2019-05-12T03:19:14.988Z,8.32
2019-05-12T03:21:46.294Z,8.35
2019-05-12T03:24:39.759Z,8.35
2019-05-12T03:27:18.282Z,8.32
2019-05-12T03:29:55.231Z,8.27
2019-05-12T03:32:28.220Z,8.14
2019-05-12T03:35:00.413Z,8.20
2019-05-12T03:37:35.194Z,8.18
2019-05-12T03:40:06.316Z,8.10
2019-05-12T03:42:38.222Z,8.01
2019-05-12T03:45:10.128Z,7.96
2019-05-12T03:47:45.607Z,8.00
2019-05-12T03:50:16.059Z,7.94
2019-05-12T03:52:51.049Z,7.90
2019-05-12T03:55:35.431Z,7.82
2019-05-12T03:58:09.464Z,7.93
2019-05-12T04:00:48.652Z,7.90
2019-05-12T04:03:26.265Z,7.90
2019-05-12T04:05:58.321Z,7.92
2019-05-12T04:08:34.700Z,7.83
2019-05-12T04:11:08.951Z,7.85
2019-05-12T04:13:45.159Z,7.80
2019-05-12T04:16:24.371Z,7.74
2019-05-12T04:18:58.380Z,7.76
2019-05-12T04:21:30.310Z,7.77
2019-05-12T04:24:05.325Z,7.84
2019-05-12T04:26:37.041Z,7.89
2019-05-12T04:29:08.977Z,7.90
2019-05-12T04:31:44.100Z,7.91
2019-05-12T04:34:18.958Z,7.85
2019-05-12T04:36:48.441Z,7.86
2019-05-12T04:39:20.377Z,7.81
2019-05-12T04:41:55.156Z,7.86
2019-05-12T04:44:27.601Z,7.85
2019-05-12T04:46:59.591Z,7.86
2019-05-12T04:49:34.592Z,7.80
2019-05-12T04:52:07.206Z,7.78
2019-05-12T04:54:39.628Z,7.79
2019-05-12T04:57:14.702Z,7.82
2019-05-12T04:59:45.861Z,7.76
2019-05-12T05:02:17.654Z,7.66
2019-05-12T05:04:49.434Z,7.73
2019-05-12T05:07:24.179Z,7.72
2019-05-12T05:09:55.141Z,7.73
2019-05-12T05:12:26.925Z,7.67
2019-05-12T05:14:58.809Z,7.56
2019-05-12T05:17:30.647Z,7.60
2019-05-12T05:20:04.109Z,7.57
2019-05-12T05:22:38.046Z,7.54
2019-05-12T05:25:09.678Z,7.59
2019-05-12T05:27:41.536Z,7.57
2019-05-12T05:30:13.936Z,7.53
2019-05-12T05:32:45.858Z,7.64
2019-05-12T05:35:17.639Z,7.63
2019-05-12T05:37:49.440Z,7.60
2019-05-12T05:40:28.413Z,7.57
2019-05-12T05:42:55.067Z,7.63
2019-05-12T05:45:26.854Z,7.67
2019-05-12T05:47:59.586Z,7.65
2019-05-12T05:50:33.893Z,7.67
2019-05-12T05:53:09.209Z,7.67
2019-05-12T05:55:40.245Z,7.74
2019-05-12T05:58:12.027Z,7.75
2019-05-12T06:00:44.129Z,7.80
2019-05-12T06:03:23.073Z,7.78
2019-05-12T06:05:50.382Z,7.75
2019-05-12T06:08:23.739Z,7.75
2019-05-12T06:10:55.659Z,7.77
2019-05-12T06:13:31.851Z,7.77
2019-05-12T06:16:01.641Z,7.87
2019-05-12T06:18:33.572Z,7.88
2019-05-12T06:21:05.399Z,7.96
2019-05-12T06:23:39.258Z,7.95
2019-05-12T06:26:10.860Z,7.97
2019-05-12T06:28:43.945Z,7.99
2019-05-12T06:31:18.891Z,8.00
2019-05-12T06:33:49.528Z,8.06
2019-05-12T06:36:22.618Z,8.04
2019-05-12T06:38:55.059Z,7.98
2019-05-12T06:41:26.861Z,8.03
2019-05-12T06:43:58.747Z,8.07
2019-05-12T06:46:30.650Z,8.11
2019-05-12T06:49:10.215Z,8.16
2019-05-12T06:51:36.036Z,8.15
2019-05-12T06:54:11.931Z,8.06
2019-05-12T06:56:43.413Z,8.08
2019-05-12T06:59:15.048Z,8.04
2019-05-12T07:01:49.809Z,8.07
2019-05-12T07:04:23.396Z,8.10
2019-05-12T07:06:56.037Z,8.14
2019-05-12T07:09:29.483Z,8.20
2019-05-12T07:12:03.891Z,8.27
2019-05-12T07:14:35.216Z,8.22
2019-05-12T07:17:23.903Z,8.16
2019-05-12T07:19:58.156Z,8.23
2019-05-12T07:22:31.262Z,8.28
2019-05-12T07:25:04.549Z,8.38
2019-05-12T07:27:39.742Z,8.39
2019-05-12T07:30:10.757Z,8.45
2019-05-12T07:32:43.376Z,8.50
2019-05-12T07:35:15.400Z,8.51
2019-05-12T07:37:48.210Z,8.45
2019-05-12T07:40:25.646Z,8.49
2019-05-12T07:42:54.493Z,8.41
2019-05-12T07:45:28.022Z,8.40
2019-05-12T07:48:05.608Z,8.50
2019-05-12T07:50:34.862Z,8.44
2019-05-12T07:53:07.063Z,8.49
2019-05-12T07:55:39.757Z,8.42
2019-05-12T07:58:16.526Z,8.53
2019-05-12T08:00:46.383Z,8.44
2019-05-12T08:03:21.158Z,8.40
2019-05-12T08:05:57.443Z,8.50
2019-05-12T08:08:25.770Z,8.50
2019-05-12T08:10:57.802Z,8.49
2019-05-12T08:13:31.140Z,8.58
2019-05-12T08:16:03.686Z,8.56
2019-05-12T08:18:41.034Z,8.67
2019-05-12T08:21:10.334Z,8.68
2019-05-12T08:23:44.269Z,8.76
2019-05-12T08:26:18.574Z,8.87
2019-05-12T08:28:49.542Z,8.79
2019-05-12T08:31:23.387Z,8.81
2019-05-12T08:33:55.175Z,8.95
2019-05-12T08:36:27.006Z,9.07
2019-05-12T08:38:58.879Z,9.09
2019-05-12T08:41:30.694Z,9.10
2019-05-12T08:44:04.644Z,9.11
2019-05-12T08:46:36.134Z,9.17
2019-05-12T08:49:08.557Z,9.16
2019-05-12T08:51:40.837Z,9.21
2019-05-12T08:54:14.206Z,9.19
2019-05-12T08:56:51.025Z,9.19
2019-05-12T08:59:24.919Z,9.20
2019-05-12T09:01:54.076Z,9.15
2019-05-12T09:04:26.046Z,9.18
2019-05-12T09:06:59.822Z,9.21
2019-05-12T09:09:33.718Z,9.15
2019-05-12T09:12:05.836Z,9.24
2019-05-12T09:14:41.259Z,9.18
2019-05-12T09:17:11.287Z,9.19
2019-05-12T09:19:44.621Z,9.20
2019-05-12T09:22:20.902Z,9.19
2019-05-12T09:24:53.270Z,9.11
2019-05-12T09:27:25.457Z,9.09
2019-05-12T09:30:08.148Z,9.05
2019-05-12T09:32:39.072Z,9.03
2019-05-12T09:35:10.535Z,9.16
2019-05-12T09:37:44.150Z,9.17
2019-05-12T09:40:20.704Z,9.27
2019-05-12T09:42:49.724Z,9.28
2019-05-12T09:45:21.611Z,9.32
2019-05-12T09:47:54.005Z,9.36
2019-05-12T09:50:26.003Z,9.37
2019-05-12T09:53:00.850Z,9.49
2019-05-12T09:55:31.435Z,9.53
2019-05-12T09:58:04.045Z,9.53
2019-05-12T10:00:37.631Z,9.64
2019-05-12T10:03:09.690Z,9.68
2019-05-12T10:05:44.010Z,9.72
2019-05-12T10:08:17.746Z,9.60
2019-05-12T10:10:56.144Z,9.63
2019-05-12T10:13:30.016Z,9.74
2019-05-12T10:16:04.953Z,9.70
2019-05-12T10:18:35.167Z,9.81
2019-05-12T10:21:10.189Z,9.69
2019-05-12T10:23:40.547Z,9.79
2019-05-12T10:26:14.694Z,9.73
2019-05-12T10:28:51.831Z,9.75
2019-05-12T10:31:19.414Z,9.76
2019-05-12T10:33:55.036Z,9.83
2019-05-12T10:36:24.748Z,9.73
2019-05-12T10:38:56.626Z,9.73
2019-05-12T10:41:28.744Z,9.75
2019-05-12T10:44:00.613Z,9.84
2019-05-12T10:46:32.433Z,9.82
2019-05-12T10:49:04.309Z,9.83
2019-05-12T10:51:37.166Z,9.96
2019-05-12T10:54:13.180Z,9.95
2019-05-12T10:56:43.815Z,9.88
2019-05-12T10:59:29.061Z,9.88
2019-05-12T11:01:49.315Z,9.87
2019-05-12T11:04:25.006Z,9.88
2019-05-12T11:06:54.836Z,9.93
2019-05-12T11:09:31.626Z,9.90
2019-05-12T11:12:03.393Z,9.95
2019-05-12T11:14:35.166Z,10.00
2019-05-12T11:17:09.628Z,10.09
2019-05-12T11:19:47.191Z,10.21
2019-05-12T11:22:15.567Z,10.35
2019-05-12T11:24:52.412Z,10.57
2019-05-12T11:27:24.061Z,10.74
2019-05-12T11:29:56.371Z,10.79
2019-05-12T11:32:36.400Z,10.92
2019-05-12T11:35:04.176Z,10.94
2019-05-12T11:37:36.116Z,11.04
2019-05-12T11:40:08.140Z,11.16
2019-05-12T11:42:41.037Z,11.46
2019-05-12T11:45:13.582Z,11.45
2019-05-12T11:47:45.609Z,11.48
2019-05-12T11:50:17.532Z,11.51
2019-05-12T11:52:51.111Z,11.55
2019-05-12T11:55:29.789Z,11.71
2019-05-12T11:58:00.368Z,11.85
2019-05-12T12:00:33.622Z,11.93
2019-05-12T12:03:12.489Z,11.93
2019-05-12T12:05:39.291Z,11.89
2019-05-12T12:08:11.327Z,12.09
2019-05-12T12:10:43.149Z,12.23
2019-05-12T12:13:19.328Z,12.18
2019-05-12T12:15:49.709Z,12.13
2019-05-12T12:18:23.616Z,12.13
2019-05-12T12:21:02.624Z,12.17
2019-05-12T12:23:28.728Z,11.99
2019-05-12T12:26:01.156Z,12.05
2019-05-12T12:28:34.410Z,11.86
2019-05-12T12:31:07.817Z,11.69
2019-05-12T12:33:41.028Z,11.54
2019-05-12T12:36:14.490Z,11.65
2019-05-12T12:38:46.497Z,11.64
2019-05-12T12:41:18.398Z,11.76
2019-05-12T12:43:50.276Z,11.63
2019-05-12T12:46:28.080Z,11.68
2019-05-12T12:49:05.415Z,11.78
2019-05-12T12:51:34.278Z,11.77
2019-05-12T12:54:06.161Z,11.64
2019-05-12T12:56:38.056Z,11.71
2019-05-12T12:59:11.801Z,11.73
2019-05-12T13:01:44.250Z,11.74
2019-05-12T13:04:17.142Z,11.66
2019-05-12T13:06:49.014Z,11.53
2019-05-12T13:09:24.421Z,11.33
2019-05-12T13:11:54.445Z,11.28
2019-05-12T13:14:28.744Z,11.24
2019-05-12T13:17:00.243Z,10.94
2019-05-12T13:19:33.272Z,10.89
2019-05-12T13:22:08.959Z,10.79
2019-05-12T13:24:38.839Z,10.86
2019-05-12T13:27:10.727Z,10.81
2019-05-12T13:29:43.554Z,10.80
2019-05-12T13:32:15.456Z,10.79
2019-05-12T13:34:47.691Z,10.80
2019-05-12T13:37:19.699Z,10.82
2019-05-12T13:39:56.811Z,10.86
2019-05-12T13:42:25.054Z,10.93
2019-05-12T13:44:57.259Z,10.85
2019-05-12T13:47:34.302Z,10.78
2019-05-12T13:50:04.071Z,10.87
2019-05-12T13:52:36.079Z,10.96
2019-05-12T13:55:08.951Z,11.00
2019-05-12T13:57:46.574Z,11.14
2019-05-12T14:00:14.466Z,11.26
2019-05-12T14:02:48.944Z,11.40
2019-05-12T14:05:19.907Z,11.52
2019-05-12T14:07:55.675Z,11.71
2019-05-12T14:10:26.712Z,11.96
2019-05-12T14:12:58.530Z,12.43
2019-05-12T14:15:30.424Z,12.50
2019-05-12T14:18:03.425Z,12.63
2019-05-12T14:20:35.365Z,12.76
2019-05-12T14:23:07.443Z,13.03
2019-05-12T14:25:40.328Z,13.13
2019-05-12T14:28:16.254Z,13.29
2019-05-12T14:30:49.700Z,13.31
2019-05-12T14:33:19.757Z,13.42
2019-05-12T14:35:53.714Z,13.21
2019-05-12T14:38:29.653Z,13.42
2019-05-12T14:41:01.313Z,13.42
2019-05-12T14:43:34.127Z,13.49
2019-05-12T14:46:10.190Z,13.49
2019-05-12T14:48:47.843Z,13.69
2019-05-12T14:51:14.104Z,13.98
2019-05-12T14:53:48.023Z,13.98
2019-05-12T14:56:19.604Z,14.20
2019-05-12T14:58:56.497Z,15.07
2019-05-12T15:01:38.470Z,15.39
2019-05-12T15:03:59.547Z,15.55
2019-05-12T15:06:31.356Z,15.43
2019-05-12T15:09:04.442Z,15.74
2019-05-12T15:11:36.426Z,16.70
2019-05-12T15:14:08.316Z,17.43
2019-05-12T15:16:41.976Z,18.17
2019-05-12T15:19:14.053Z,18.05
2019-05-12T15:21:46.106Z,17.94
2019-05-12T15:24:19.087Z,17.94
2019-05-12T15:26:59.035Z,17.78
2019-05-12T15:29:24.574Z,17.54
2019-05-12T15:31:57.298Z,17.10
2019-05-12T15:34:29.243Z,16.95
2019-05-12T15:37:01.188Z,16.87
2019-05-12T15:39:33.641Z,16.83
2019-05-12T15:42:05.551Z,16.84
2019-05-12T15:44:37.444Z,16.55
2019-05-12T15:47:09.315Z,16.18
2019-05-12T15:49:41.125Z,15.88
2019-05-12T15:52:14.261Z,15.78
2019-05-12T15:54:50.989Z,15.59
2019-05-12T15:57:19.873Z,15.90
2019-05-12T15:59:53.975Z,15.72
2019-05-12T16:02:25.233Z,15.68
2019-05-12T16:04:57.279Z,15.64
2019-05-12T16:07:29.737Z,15.63
2019-05-12T16:10:04.273Z,15.70
2019-05-12T16:12:36.265Z,16.05
2019-05-12T16:15:11.401Z,16.04
2019-05-12T16:17:44.040Z,16.32
2019-05-12T16:20:16.199Z,16.27
2019-05-12T16:22:48.059Z,16.14
2019-05-12T16:25:25.866Z,15.80
2019-05-12T16:27:53.746Z,15.43
2019-05-12T16:30:27.122Z,15.31
2019-05-12T16:32:59.298Z,15.18
2019-05-12T16:35:31.913Z,14.96
2019-05-12T16:38:05.855Z,14.90
2019-05-12T16:40:39.569Z,14.73
2019-05-12T16:43:14.295Z,14.73
2019-05-12T16:45:45.566Z,14.68
2019-05-12T16:48:29.429Z,14.53
2019-05-12T16:50:50.918Z,14.41
2019-05-12T16:53:27.719Z,14.35
2019-05-12T16:55:57.197Z,14.31
2019-05-12T16:58:33.136Z,14.13
2019-05-12T17:01:03.783Z,13.89
2019-05-12T17:03:35.804Z,13.88
2019-05-12T17:06:07.804Z,13.80
2019-05-12T17:08:39.662Z,13.74
2019-05-12T17:11:24.358Z,13.53
2019-05-12T17:13:47.357Z,13.57
2019-05-12T17:16:18.589Z,13.55
2019-05-12T17:18:50.379Z,13.52
2019-05-12T17:21:24.065Z,13.47
2019-05-12T17:23:55.688Z,13.47
2019-05-12T17:26:27.754Z,13.34
2019-05-12T17:29:01.611Z,13.34
2019-05-12T17:31:33.858Z,13.23
2019-05-12T17:34:09.084Z,13.21
2019-05-12T17:36:39.863Z,13.17
2019-05-12T17:39:13.923Z,12.97
2019-05-12T17:41:46.544Z,12.97
2019-05-12T17:44:22.548Z,12.96
2019-05-12T17:46:58.932Z,12.88
2019-05-12T17:49:31.276Z,12.73
2019-05-12T17:52:12.485Z,12.61
2019-05-12T17:54:36.664Z,12.54
2019-05-12T17:57:09.431Z,12.54
2019-05-12T17:59:44.737Z,12.37
2019-05-12T18:02:17.057Z,12.41
2019-05-12T18:04:49.995Z,12.41
2019-05-12T18:07:23.826Z,12.47
2019-05-12T18:10:00.592Z,12.47
2019-05-12T18:12:36.583Z,12.47
2019-05-12T18:15:06.048Z,12.37
2019-05-12T18:17:39.095Z,12.32
2019-05-12T18:20:13.783Z,12.28
2019-05-12T18:22:47.111Z,12.24
2019-05-12T18:25:21.910Z,12.18
2019-05-12T18:27:54.255Z,12.13
2019-05-12T18:30:26.333Z,12.13
2019-05-12T18:33:04.620Z,12.04
2019-05-12T18:35:35.838Z,12.00
2019-05-12T18:38:18.198Z,12.01
2019-05-12T18:40:43.212Z,11.99
2019-05-12T18:43:15.140Z,11.86
2019-05-12T18:45:54.981Z,11.73
2019-05-12T18:48:25.002Z,11.68
2019-05-12T18:50:55.773Z,11.66
2019-05-12T18:53:31.969Z,11.60
2019-05-12T18:56:04.419Z,11.58
2019-05-12T18:58:35.595Z,11.53
2019-05-12T19:01:07.782Z,11.48
2019-05-12T19:03:49.713Z,11.42
2019-05-12T19:06:14.111Z,11.32
2019-05-12T19:08:46.110Z,11.29
2019-05-12T19:11:22.728Z,11.23
2019-05-12T19:13:56.840Z,11.24
2019-05-12T19:16:25.131Z,11.19
2019-05-12T19:18:57.098Z,11.18
2019-05-12T19:21:30.697Z,11.17
2019-05-12T19:24:03.604Z,11.11
2019-05-12T19:26:38.419Z,11.11
2019-05-12T19:29:09.206Z,11.00
2019-05-12T19:31:45.221Z,10.92
2019-05-12T19:34:22.254Z,10.94
2019-05-12T19:36:49.610Z,10.94
2019-05-12T19:39:25.123Z,10.82
2019-05-12T19:41:55.097Z,10.81
2019-05-12T19:44:30.690Z,10.79
2019-05-12T19:47:00.643Z,10.79
2019-05-12T19:49:44.165Z,10.76
2019-05-12T19:52:07.568Z,10.65
2019-05-12T19:54:44.374Z,10.68
2019-05-12T19:57:21.868Z,10.67
2019-05-12T19:59:53.366Z,10.61
2019-05-12T20:02:25.125Z,10.60
2019-05-12T20:04:57.038Z,10.57
2019-05-12T20:07:29.047Z,10.56
2019-05-12T20:10:01.048Z,10.57
2019-05-12T20:12:34.340Z,10.59
2019-05-12T20:15:07.417Z,10.57
2019-05-12T20:17:39.399Z,10.51
2019-05-12T20:20:13.695Z,10.43
2019-05-12T20:22:46.146Z,10.41
2019-05-12T20:25:18.140Z,10.31
2019-05-12T20:27:56.177Z,10.24
2019-05-12T20:30:28.112Z,10.20
2019-05-12T20:33:00.892Z,10.08
2019-05-12T20:35:33.811Z,9.99
2019-05-12T20:38:05.826Z,9.97
2019-05-12T20:40:39.851Z,9.92
2019-05-12T20:43:14.613Z,9.91
2019-05-12T20:45:45.862Z,9.86
2019-05-12T20:48:19.588Z,9.85
2019-05-12T20:50:51.262Z,9.91
2019-05-12T20:53:31.583Z,9.97
2019-05-12T20:55:56.650Z,9.93
2019-05-12T20:58:37.421Z,9.82
2019-05-12T21:01:05.162Z,9.81
2019-05-12T21:03:39.725Z,9.81
2019-05-12T21:06:09.906Z,9.78
2019-05-12T21:08:45.019Z,9.77
2019-05-12T21:11:15.238Z,9.75
2019-05-12T21:13:47.115Z,9.82
2019-05-12T21:16:25.221Z,9.86
2019-05-12T21:19:02.105Z,9.87
2019-05-12T21:21:33.396Z,9.89
2019-05-12T21:23:59.746Z,9.85
2019-05-12T21:26:34.695Z,9.93
2019-05-12T21:29:05.420Z,9.92
2019-05-12T21:31:37.190Z,9.95
2019-05-12T21:34:13.067Z,9.94
2019-05-12T21:36:44.329Z,9.94
2019-05-12T21:39:16.172Z,9.92
2019-05-12T21:41:52.029Z,9.88
2019-05-12T21:44:24.525Z,9.79
2019-05-12T21:47:02.667Z,9.61
2019-05-12T21:49:29.779Z,9.61
2019-05-12T21:52:04.196Z,9.62
2019-05-12T21:54:39.411Z,9.60
2019-05-12T21:57:08.991Z,9.50
2019-05-12T21:59:40.856Z,9.42
2019-05-12T22:02:14.687Z,9.35
2019-05-12T22:04:46.332Z,9.24
2019-05-12T22:07:18.204Z,9.21
2019-05-12T22:09:50.075Z,9.21
2019-05-12T22:12:23.460Z,9.18
2019-05-12T22:14:55.511Z,9.20
2019-05-12T22:17:30.448Z,9.22
2019-05-12T22:20:08.473Z,9.14
2019-05-12T22:22:36.039Z,9.20
2019-05-12T22:25:09.674Z,9.15
2019-05-12T22:27:42.576Z,9.20
2019-05-12T22:30:14.385Z,9.09
2019-05-12T22:32:46.244Z,9.11
2019-05-12T22:35:21.914Z,9.11
2019-05-12T22:37:53.532Z,9.06
2019-05-12T22:40:25.533Z,9.01
2019-05-12T22:43:01.321Z,9.04
2019-05-12T22:45:36.093Z,9.04
2019-05-12T22:48:04.628Z,8.96
2019-05-12T22:50:36.510Z,8.94
2019-05-12T22:53:08.380Z,8.96
2019-05-12T22:55:40.254Z,8.97
2019-05-12T22:58:20.727Z,8.96
2019-05-12T23:00:45.744Z,8.94
2019-05-12T23:03:17.626Z,8.91
2019-05-12T23:05:50.771Z,8.86
2019-05-12T23:08:24.649Z,8.80
2019-05-12T23:10:57.682Z,8.73
2019-05-12T23:13:32.363Z,8.73
2019-05-12T23:16:03.617Z,8.78
2019-05-12T23:18:35.544Z,8.79
2019-05-12T23:21:13.631Z,8.75
2019-05-12T23:23:41.908Z,8.71
2019-05-12T23:26:14.208Z,8.72
2019-05-12T23:28:50.348Z,8.64
2019-05-12T23:31:28.485Z,8.65
2019-05-12T23:33:54.362Z,8.65
2019-05-12T23:36:35.563Z,8.65
2019-05-12T23:39:01.990Z,8.63
2019-05-12T23:41:34.396Z,8.60
2019-05-12T23:44:06.431Z,8.56
2019-05-12T23:46:38.287Z,8.56
2019-05-12T23:49:10.096Z,8.56
2019-05-12T23:51:43.873Z,8.57
2019-05-12T23:54:15.405Z,8.58
2019-05-12T23:56:47.192Z,8.60
2019-05-12T23:59:18.989Z,8.59
